Time;durP1;ratioP1;P1;durP2;ratioP2;P2;SDS_P1;SDS_P2;PMS_P1;PMS_P2;Temp;Humidity;BMP_temperature;BMP_pressure;BME280_temperature;BME280_humidity;BME280_pressure;Samples;Min_cycle;Max_cycle;Signal;HPM_P1;HPM_P2
2023/05/05 00:01:53;;;;;;;14.85;9.57;;;;;;;;;;4992845;28;20525;-71
2023/05/05 00:04:21;;;;;;;12.48;9.00;;;;;;;;;;4997685;28;20128;-71
2023/05/05 00:06:49;;;;;;;14.00;9.73;;;;;;;;;;4994583;28;20042;-72
2023/05/05 00:09:14;;;;;;;13.00;9.73;;;;;;;;;;4993574;28;20046;-72
2023/05/05 00:11:39;;;;;;;15.40;9.77;;;;;;;;;;4993672;28;20061;-71
2023/05/05 00:14:05;;;;;;;18.13;10.63;;;;;;;;;;4994848;28;20034;-72
2023/05/05 00:16:30;;;;;;;17.55;10.77;;;;;;;;;;4992350;28;20163;-72
2023/05/05 00:18:56;;;;;;;34.10;13.80;;;;;;;;;;4992095;28;20066;-71
2023/05/05 00:21:21;;;;;;;21.23;13.73;;;;;;;;;;4994659;28;20034;-73
2023/05/05 00:23:48;;;;;;;21.15;14.38;;;;;;;;;;5029909;28;20054;-72
2023/05/05 00:26:13;;;;;;;19.48;13.93;;;;;;;;;;5017005;28;20032;-71
2023/05/05 00:28:38;;;;;;;25.27;15.77;;;;;;;;;;5013884;28;20049;-72
2023/05/05 00:31:04;;;;;;;28.13;17.13;;;;;;;;;;5014076;28;20059;-72
2023/05/05 00:33:31;;;;;;;29.13;18.50;;;;;;;;;;5005562;28;20053;-72
2023/05/05 00:35:59;;;;;;;27.70;16.52;;;;;;;;;;5029821;28;20431;-71
2023/05/05 00:38:25;;;;;;;37.17;15.98;;;;;;;;;;5057505;28;20041;-71
2023/05/05 00:40:50;;;;;;;41.63;15.30;;;;;;;;;;5033309;28;20037;-73
2023/05/05 00:43:15;;;;;;;43.75;15.30;;;;;;;;;;5026457;28;20046;-71
2023/05/05 00:45:43;;;;;;;39.88;15.20;;;;;;;;;;5030436;28;20025;-72
2023/05/05 00:48:10;;;;;;;33.17;14.20;;;;;;;;;;5031615;28;20620;-72
2023/05/05 00:50:36;;;;;;;34.83;15.35;;;;;;;;;;5021618;28;20025;-71
2023/05/05 00:53:02;;;;;;;40.33;15.88;;;;;;;;;;5056559;28;20114;-72
2023/05/05 00:55:31;;;;;;;42.80;15.23;;;;;;;;;;5028219;28;20112;-71
2023/05/05 00:58:00;;;;;;;32.03;15.38;;;;;;;;;;5025394;28;20048;-72
2023/05/05 01:00:26;;;;;;;39.78;15.82;;;;;;;;;;5029058;28;20048;-72
2023/05/05 01:02:51;;;;;;;33.35;14.85;;;;;;;;;;5067488;28;20482;-72
2023/05/05 01:05:19;;;;;;;27.40;15.30;;;;;;;;;;5036081;28;20045;-71
2023/05/05 01:08:01;;;;;;;30.02;15.48;;;;;;;;;;5058624;28;20494;-72
2023/05/05 01:10:26;;;;;;;;;;;;;;;;;;5029321;28;20140;-72
2023/05/05 01:13:04;;;;;;;34.10;15.65;;;;;;;;;;5040564;28;19944;-72
2023/05/05 01:15:33;;;;;;;37.03;16.73;;;;;;;;;;5035373;28;20276;-73
2023/05/05 01:18:08;;;;;;;33.65;15.60;;;;;;;;;;5028766;28;20043;-73
2023/05/05 01:20:39;;;;;;;31.65;16.63;;;;;;;;;;5037936;28;20355;-72
2023/05/05 01:23:09;;;;;;;31.70;16.00;;;;;;;;;;5040555;28;20033;-71
2023/05/05 01:25:38;;;;;;;26.70;17.45;;;;;;;;;;5038919;28;20039;-72
2023/05/05 01:28:03;;;;;;;32.22;17.23;;;;;;;;;;5031071;28;20402;-72
2023/05/05 01:30:48;;;;;;;29.45;16.02;;;;;;;;;;5015099;28;20030;-71
2023/05/05 01:33:14;;;;;;;31.48;16.58;;;;;;;;;;5013690;28;20108;-72
2023/05/05 01:35:44;;;;;;;28.13;15.73;;;;;;;;;;5022004;28;20036;-74
2023/05/05 01:38:18;;;;;;;27.08;14.60;;;;;;;;;;5009557;28;20136;-72
2023/05/05 01:40:53;;;;;;;23.52;14.75;;;;;;;;;;5008745;28;20494;-73
2023/05/05 01:43:22;;;;;;;33.00;16.67;;;;;;;;;;5008125;28;20128;-72
2023/05/05 01:45:47;;;;;;;27.58;15.77;;;;;;;;;;5016085;28;20044;-74
2023/05/05 01:48:15;;;;;;;31.00;15.65;;;;;;;;;;5009993;28;20033;-73
2023/05/05 01:50:42;;;;;;;30.50;15.00;;;;;;;;;;5041914;28;20109;-74
2023/05/05 01:53:08;;;;;;;25.95;15.25;;;;;;;;;;5046208;28;20493;-72
2023/05/05 01:55:34;;;;;;;23.58;14.48;;;;;;;;;;5045862;28;20482;-72
2023/05/05 01:58:03;;;;;;;25.90;14.55;;;;;;;;;;5032334;28;20041;-72
2023/05/05 02:00:29;;;;;;;30.15;14.43;;;;;;;;;;5027757;28;20092;-72
2023/05/05 02:02:56;;;;;;;28.30;14.73;;;;;;;;;;5016046;28;20025;-72
2023/05/05 02:05:23;;;;;;;28.05;15.27;;;;;;;;;;5010691;28;20045;-73
2023/05/05 02:07:49;;;;;;;27.90;15.60;;;;;;;;;;5012985;28;20367;-72
2023/05/05 02:10:15;;;;;;;26.90;14.30;;;;;;;;;;5014222;28;20038;-72
2023/05/05 02:12:44;;;;;;;28.75;14.98;;;;;;;;;;5017811;28;20587;-71
2023/05/05 02:15:10;;;;;;;24.45;14.02;;;;;;;;;;5015652;28;20026;-72
2023/05/05 02:17:36;;;;;;;28.50;13.93;;;;;;;;;;5026953;28;20025;-72
2023/05/05 02:20:02;;;;;;;33.30;12.88;;;;;;;;;;5026677;28;20026;-71
2023/05/05 02:22:28;;;;;;;22.23;9.75;;;;;;;;;;5010434;28;20034;-72
2023/05/05 02:24:53;;;;;;;20.63;8.68;;;;;;;;;;5014602;28;20030;-72
2023/05/05 02:27:22;;;;;;;18.73;7.25;;;;;;;;;;5012180;28;20076;-73
2023/05/05 02:29:51;;;;;;;14.07;7.15;;;;;;;;;;5025150;28;20029;-72
2023/05/05 02:32:26;;;;;;;20.55;6.90;;;;;;;;;;5025987;28;20058;-72
2023/05/05 02:34:53;;;;;;;16.15;8.27;;;;;;;;;;5026119;28;20390;-73
2023/05/05 02:37:22;;;;;;;17.95;8.43;;;;;;;;;;5028564;28;21569;-72
2023/05/05 02:39:57;;;;;;;15.18;7.85;;;;;;;;;;5024132;28;20437;-73
2023/05/05 02:42:28;;;;;;;18.85;8.30;;;;;;;;;;5023932;28;20045;-72
2023/05/05 02:44:56;;;;;;;17.65;8.93;;;;;;;;;;5027212;28;20026;-73
2023/05/05 02:47:22;;;;;;;18.77;9.45;;;;;;;;;;5062675;28;20086;-72
2023/05/05 02:49:47;;;;;;;20.38;10.88;;;;;;;;;;5025081;28;20165;-73
2023/05/05 02:52:13;;;;;;;23.63;12.52;;;;;;;;;;5034169;28;20036;-73
2023/05/05 02:54:38;;;;;;;23.75;10.77;;;;;;;;;;5063718;28;20068;-73
2023/05/05 02:57:08;;;;;;;20.85;11.30;;;;;;;;;;5037558;28;20374;-72
2023/05/05 02:59:33;;;;;;;25.33;13.45;;;;;;;;;;5035514;28;20037;-71
2023/05/05 03:02:30;;;;;;;20.52;12.60;;;;;;;;;;5069155;28;20041;-72
2023/05/05 03:05:01;;;;;;;20.27;9.93;;;;;;;;;;5028820;28;20129;-72
2023/05/05 03:07:29;;;;;;;23.48;10.98;;;;;;;;;;5043944;28;20076;-72
2023/05/05 03:09:54;;;;;;;24.50;10.85;;;;;;;;;;5037186;28;20559;-73
2023/05/05 03:12:23;;;;;;;30.40;13.95;;;;;;;;;;5039465;28;20037;-71
2023/05/05 03:14:50;;;;;;;31.10;13.75;;;;;;;;;;5036554;28;20112;-74
2023/05/05 03:17:17;;;;;;;28.92;12.95;;;;;;;;;;5032797;28;20454;-72
2023/05/05 03:19:43;;;;;;;29.33;13.25;;;;;;;;;;5028682;28;20041;-74
2023/05/05 03:22:10;;;;;;;29.60;13.38;;;;;;;;;;5028790;28;20033;-72
2023/05/05 03:24:35;;;;;;;28.35;14.23;;;;;;;;;;5032778;28;20091;-72
2023/05/05 03:27:01;;;;;;;26.85;13.95;;;;;;;;;;5028857;28;20032;-73
2023/05/05 03:29:28;;;;;;;27.55;14.38;;;;;;;;;;5026673;28;20104;-71
2023/05/05 03:31:53;;;;;;;28.80;13.90;;;;;;;;;;5026721;28;20033;-73
2023/05/05 03:34:19;;;;;;;32.38;13.88;;;;;;;;;;5025510;28;20044;-72
2023/05/05 03:36:44;;;;;;;26.58;13.48;;;;;;;;;;5029079;28;20026;-72
2023/05/05 03:39:09;;;;;;;38.70;14.73;;;;;;;;;;5032079;28;20116;-73
2023/05/05 03:41:35;;;;;;;36.60;15.38;;;;;;;;;;5022559;28;20128;-73
2023/05/05 03:44:02;;;;;;;36.45;16.13;;;;;;;;;;5063378;28;20056;-73
2023/05/05 03:46:28;;;;;;;33.78;14.50;;;;;;;;;;5031894;28;20123;-73
2023/05/05 03:48:55;;;;;;;33.22;13.20;;;;;;;;;;5032545;28;20068;-72
2023/05/05 03:51:21;;;;;;;32.10;14.45;;;;;;;;;;5065122;28;20033;-71
2023/05/05 03:53:46;;;;;;;35.10;15.82;;;;;;;;;;5032604;28;20025;-74
2023/05/05 03:56:11;;;;;;;35.85;16.67;;;;;;;;;;5033660;28;20041;-73
2023/05/05 03:58:39;;;;;;;40.75;17.55;;;;;;;;;;5028549;28;20056;-72
2023/05/05 04:01:07;;;;;;;34.47;18.20;;;;;;;;;;5057539;28;20036;-73
2023/05/05 04:03:34;;;;;;;36.10;19.42;;;;;;;;;;5048675;28;20483;-72
2023/05/05 04:06:00;;;;;;;39.30;20.13;;;;;;;;;;5030094;28;20021;-72
2023/05/05 04:08:30;;;;;;;35.08;19.45;;;;;;;;;;5032253;28;20040;-72
2023/05/05 04:10:56;;;;;;;36.13;19.95;;;;;;;;;;5030963;28;20052;-71
2023/05/05 04:13:21;;;;;;;43.72;20.65;;;;;;;;;;5030963;28;20068;-73
2023/05/05 04:15:47;;;;;;;34.90;22.05;;;;;;;;;;5029526;28;20030;-73
2023/05/05 04:18:12;;;;;;;43.22;24.70;;;;;;;;;;5029595;28;20037;-71
2023/05/05 04:20:37;;;;;;;39.65;22.42;;;;;;;;;;5031542;28;20036;-71
2023/05/05 04:23:03;;;;;;;34.78;21.67;;;;;;;;;;5036366;28;20083;-72
2023/05/05 04:25:28;;;;;;;38.72;20.73;;;;;;;;;;5034467;28;20130;-72
2023/05/05 04:27:53;;;;;;;37.13;20.27;;;;;;;;;;5067961;28;20036;-72
2023/05/05 04:30:19;;;;;;;34.95;20.40;;;;;;;;;;5032882;28;20059;-72
2023/05/05 04:32:44;;;;;;;31.30;19.88;;;;;;;;;;5042726;28;20409;-70
2023/05/05 04:35:09;;;;;;;36.20;19.42;;;;;;;;;;5034216;28;20038;-72
2023/05/05 04:37:35;;;;;;;35.65;20.85;;;;;;;;;;5032259;28;20033;-70
2023/05/05 04:40:02;;;;;;;34.67;20.25;;;;;;;;;;5065848;28;20025;-71
2023/05/05 04:42:29;;;;;;;45.72;21.58;;;;;;;;;;5037517;28;20132;-72
2023/05/05 04:44:54;;;;;;;31.80;20.73;;;;;;;;;;5034236;28;21297;-73
2023/05/05 04:47:19;;;;;;;40.13;22.35;;;;;;;;;;5035026;28;20140;-72
2023/05/05 04:49:47;;;;;;;40.42;21.58;;;;;;;;;;5033773;28;20421;-71
2023/05/05 04:52:13;;;;;;;38.08;22.67;;;;;;;;;;5068791;28;20017;-71
2023/05/05 04:54:38;;;;;;;37.90;24.73;;;;;;;;;;5042235;28;20079;-71
2023/05/05 04:57:03;;;;;;;39.10;23.80;;;;;;;;;;5040275;28;20112;-70
2023/05/05 04:59:30;;;;;;;43.58;24.33;;;;;;;;;;5075112;28;20047;-72
2023/05/05 05:01:56;;;;;;;42.38;24.15;;;;;;;;;;5036875;28;20030;-70
2023/05/05 05:04:21;;;;;;;37.63;24.23;;;;;;;;;;5019893;28;20048;-71
2023/05/05 05:06:46;;;;;;;38.72;24.92;;;;;;;;;;5020611;28;20030;-71
2023/05/05 05:09:12;;;;;;;43.63;25.42;;;;;;;;;;5010570;28;20025;-71
2023/05/05 05:11:40;;;;;;;39.67;25.50;;;;;;;;;;5017079;28;20464;-71
2023/05/05 05:14:05;;;;;;;41.15;25.77;;;;;;;;;;4993562;28;20173;-75
2023/05/05 05:16:30;;;;;;;39.72;24.65;;;;;;;;;;4991895;28;20034;-74
2023/05/05 05:18:56;;;;;;;40.40;23.05;;;;;;;;;;4992408;28;20176;-75
2023/05/05 05:21:23;;;;;;;35.47;22.45;;;;;;;;;;4990215;28;20498;-75
2023/05/05 05:23:48;;;;;;;35.90;22.05;;;;;;;;;;4988433;28;20050;-75
2023/05/05 05:26:16;;;;;;;32.33;20.67;;;;;;;;;;4990742;28;20045;-74
2023/05/05 05:28:42;;;;;;;31.77;20.73;;;;;;;;;;5007269;28;20069;-73
2023/05/05 05:31:10;;;;;;;29.00;18.83;;;;;;;;;;4991797;28;20129;-73
2023/05/05 05:33:37;;;;;;;28.33;17.35;;;;;;;;;;4987815;28;20044;-73
2023/05/05 05:36:03;;;;;;;24.88;16.60;;;;;;;;;;4990970;28;20041;-74
2023/05/05 05:38:28;;;;;;;26.83;16.83;;;;;;;;;;5021534;28;20053;-73
2023/05/05 05:40:53;;;;;;;31.00;17.80;;;;;;;;;;4988162;28;20048;-75
2023/05/05 05:43:19;;;;;;;29.08;17.88;;;;;;;;;;4990947;28;20068;-74
2023/05/05 05:45:44;;;;;;;29.40;18.45;;;;;;;;;;5019559;28;20092;-74
2023/05/05 05:48:09;;;;;;;23.90;15.70;;;;;;;;;;4988846;28;20122;-75
2023/05/05 05:50:35;;;;;;;27.08;17.27;;;;;;;;;;4989204;28;20034;-76
2023/05/05 05:53:00;;;;;;;29.65;18.10;;;;;;;;;;4989405;28;20091;-73
2023/05/05 05:55:25;;;;;;;25.67;15.68;;;;;;;;;;4989594;28;20045;-74
2023/05/05 05:57:51;;;;;;;22.58;14.52;;;;;;;;;;4989888;28;20089;-73
2023/05/05 06:00:16;;;;;;;24.33;15.00;;;;;;;;;;4989305;28;20495;-73
2023/05/05 06:02:41;;;;;;;21.33;14.07;;;;;;;;;;4990656;28;20045;-74
2023/05/05 06:05:07;;;;;;;21.95;14.50;;;;;;;;;;4990052;28;20104;-73
2023/05/05 06:07:34;;;;;;;26.50;15.10;;;;;;;;;;4988937;28;20044;-73
2023/05/05 06:10:00;;;;;;;23.52;14.75;;;;;;;;;;5020899;28;20038;-73
2023/05/05 06:12:27;;;;;;;21.65;14.73;;;;;;;;;;4989680;28;20040;-73
2023/05/05 06:14:53;;;;;;;22.63;14.55;;;;;;;;;;4988313;28;20115;-74
2023/05/05 06:17:20;;;;;;;21.52;13.80;;;;;;;;;;4991148;28;20037;-74
2023/05/05 06:19:46;;;;;;;20.63;14.60;;;;;;;;;;4988051;28;20092;-73
2023/05/05 06:22:11;;;;;;;23.52;15.02;;;;;;;;;;4988116;28;20042;-72
2023/05/05 06:24:36;;;;;;;23.17;15.40;;;;;;;;;;4989849;28;20053;-73
2023/05/05 06:27:04;;;;;;;20.17;13.43;;;;;;;;;;4992682;28;20072;-74
2023/05/05 06:29:29;;;;;;;19.42;11.57;;;;;;;;;;4993660;28;20034;-74
2023/05/05 06:31:59;;;;;;;16.92;9.93;;;;;;;;;;4991707;28;20044;-73
2023/05/05 06:34:25;;;;;;;17.35;9.88;;;;;;;;;;4991407;28;20622;-73
2023/05/05 06:36:51;;;;;;;15.32;9.85;;;;;;;;;;5019554;28;20040;-70
2023/05/05 06:39:16;;;;;;;11.35;7.78;;;;;;;;;;4987436;28;20042;-71
2023/05/05 06:41:41;;;;;;;12.90;7.78;;;;;;;;;;4987937;28;20029;-72
2023/05/05 06:44:12;;;;;;;12.98;7.75;;;;;;;;;;4990198;28;20690;-71
2023/05/05 06:46:37;;;;;;;11.80;8.10;;;;;;;;;;4997620;28;20052;-70
2023/05/05 06:49:02;;;;;;;15.48;9.77;;;;;;;;;;4989828;28;20034;-69
2023/05/05 06:51:28;;;;;;;14.18;8.55;;;;;;;;;;4991132;28;21701;-69
2023/05/05 06:53:54;;;;;;;12.25;7.53;;;;;;;;;;4990495;28;20124;-71
2023/05/05 06:56:19;;;;;;;10.93;6.93;;;;;;;;;;5000428;28;20037;-69
2023/05/05 06:58:45;;;;;;;13.77;7.65;;;;;;;;;;4992266;28;20046;-71
2023/05/05 07:01:10;;;;;;;12.32;7.93;;;;;;;;;;4991106;28;22336;-69
2023/05/05 07:03:36;;;;;;;13.48;8.13;;;;;;;;;;4992331;28;20573;-71
2023/05/05 07:06:03;;;;;;;13.40;8.38;;;;;;;;;;5023348;28;20048;-71
2023/05/05 07:08:29;;;;;;;10.35;6.43;;;;;;;;;;5041540;28;22126;-72
2023/05/05 07:10:54;;;;;;;8.85;5.65;;;;;;;;;;5011081;28;20034;-72
2023/05/05 07:13:19;;;;;;;11.20;6.05;;;;;;;;;;5009115;28;20037;-70
2023/05/05 07:15:45;;;;;;;12.07;6.65;;;;;;;;;;5040744;28;20029;-71
2023/05/05 07:18:13;;;;;;;9.07;5.70;;;;;;;;;;5013927;28;20049;-71
2023/05/05 07:20:39;;;;;;;10.63;5.70;;;;;;;;;;5041885;28;20033;-72
2023/05/05 07:23:04;;;;;;;7.75;5.60;;;;;;;;;;5011388;28;20045;-72
2023/05/05 07:25:32;;;;;;;7.90;5.22;;;;;;;;;;5028357;28;20188;-69
2023/05/05 07:27:57;;;;;;;11.05;5.07;;;;;;;;;;5009316;28;20029;-71
2023/05/05 07:30:24;;;;;;;8.93;5.53;;;;;;;;;;5005648;28;20372;-73
2023/05/05 07:32:50;;;;;;;9.00;5.20;;;;;;;;;;5009798;28;20029;-72
2023/05/05 07:35:15;;;;;;;7.68;4.60;;;;;;;;;;5007456;28;20033;-72
2023/05/05 07:37:40;;;;;;;6.68;4.68;;;;;;;;;;5039638;28;20170;-71
2023/05/05 07:40:06;;;;;;;9.30;4.90;;;;;;;;;;5040277;28;20611;-73
2023/05/05 07:42:34;;;;;;;9.23;5.35;;;;;;;;;;5017073;28;20033;-71
2023/05/05 07:45:00;;;;;;;10.80;5.50;;;;;;;;;;5012776;28;20030;-71
2023/05/05 07:47:25;;;;;;;9.27;5.32;;;;;;;;;;5014729;28;20047;-72
2023/05/05 07:49:50;;;;;;;11.20;5.95;;;;;;;;;;5009581;28;20505;-72
2023/05/05 07:52:16;;;;;;;13.95;6.82;;;;;;;;;;5012615;28;20308;-72
2023/05/05 07:54:41;;;;;;;11.10;6.30;;;;;;;;;;5038178;28;20038;-70
2023/05/05 07:57:06;;;;;;;13.05;6.88;;;;;;;;;;5013853;28;20903;-71
2023/05/05 07:59:32;;;;;;;11.77;6.07;;;;;;;;;;5044402;28;20076;-69
2023/05/05 08:01:57;;;;;;;10.88;5.80;;;;;;;;;;5043354;28;20045;-73
2023/05/05 08:04:22;;;;;;;10.57;5.07;;;;;;;;;;5011759;28;20049;-70
2023/05/05 08:06:48;;;;;;;9.93;5.32;;;;;;;;;;5009529;28;20044;-72
2023/05/05 08:09:13;;;;;;;11.60;5.70;;;;;;;;;;5007707;28;20096;-71
2023/05/05 08:11:38;;;;;;;9.50;5.68;;;;;;;;;;5010596;28;20041;-71
2023/05/05 08:14:04;;;;;;;9.45;5.85;;;;;;;;;;5013215;28;20037;-70
2023/05/05 08:16:29;;;;;;;10.93;5.88;;;;;;;;;;5015076;28;20037;-72
2023/05/05 08:18:54;;;;;;;8.02;5.88;;;;;;;;;;5009169;28;20041;-70
2023/05/05 08:21:20;;;;;;;13.30;7.10;;;;;;;;;;5010242;28;20152;-66
2023/05/05 08:23:45;;;;;;;11.73;7.05;;;;;;;;;;5005244;28;20103;-67
2023/05/05 08:26:12;;;;;;;10.20;6.97;;;;;;;;;;5009020;28;20046;-67
2023/05/05 08:28:38;;;;;;;9.80;6.35;;;;;;;;;;5008278;28;20164;-67
2023/05/05 08:31:06;;;;;;;9.25;5.45;;;;;;;;;;5008419;28;20025;-67
2023/05/05 08:33:31;;;;;;;8.43;5.47;;;;;;;;;;5008397;28;20057;-68
2023/05/05 08:35:57;;;;;;;10.02;6.70;;;;;;;;;;5007969;28;20048;-67
2023/05/05 08:38:22;;;;;;;8.90;5.85;;;;;;;;;;5007240;28;20723;-68
2023/05/05 08:40:49;;;;;;;15.93;8.65;;;;;;;;;;5009644;28;20041;-67
2023/05/05 08:43:19;;;;;;;11.55;7.35;;;;;;;;;;5005749;28;20037;-68
2023/05/05 08:45:44;;;;;;;13.23;7.32;;;;;;;;;;5005871;28;20478;-68
2023/05/05 08:48:14;;;;;;;10.30;6.40;;;;;;;;;;5013519;28;20044;-68
2023/05/05 08:50:43;;;;;;;10.30;6.40;;;;;;;;;;5006898;28;20621;-67
2023/05/05 08:53:10;;;;;;;10.70;6.35;;;;;;;;;;5039520;28;20057;-67
2023/05/05 08:55:49;;;;;;;9.98;6.10;;;;;;;;;;5005489;28;20044;-68
2023/05/05 08:58:16;;;;;;;5.90;4.47;;;;;;;;;;5007392;28;20552;-68
2023/05/05 09:00:43;;;;;;;9.00;5.63;;;;;;;;;;5008529;28;20438;-67
2023/05/05 09:03:08;;;;;;;12.00;5.30;;;;;;;;;;5039847;28;20041;-68
2023/05/05 09:05:34;;;;;;;9.52;5.40;;;;;;;;;;5010926;28;20034;-69
2023/05/05 09:08:00;;;;;;;10.45;6.13;;;;;;;;;;5006059;28;20037;-67
2023/05/05 09:10:27;;;;;;;9.20;5.70;;;;;;;;;;5023253;28;20108;-68
2023/05/05 09:12:52;;;;;;;11.20;6.45;;;;;;;;;;5039911;28;20079;-69
2023/05/05 09:15:22;;;;;;;9.85;6.05;;;;;;;;;;5039223;28;20072;-67
2023/05/05 09:17:47;;;;;;;10.68;7.00;;;;;;;;;;5007183;28;20088;-68
2023/05/05 09:20:13;;;;;;;11.48;6.28;;;;;;;;;;5039614;28;20033;-67
2023/05/05 09:22:40;;;;;;;12.65;6.10;;;;;;;;;;5007744;28;20616;-67
2023/05/05 09:25:07;;;;;;;11.90;6.35;;;;;;;;;;5006595;28;20090;-67
2023/05/05 09:27:40;;;;;;;10.70;6.63;;;;;;;;;;5016639;28;20029;-67
2023/05/05 09:30:05;;;;;;;12.65;6.45;;;;;;;;;;5006811;28;20041;-66
2023/05/05 09:32:44;;;;;;;12.45;6.25;;;;;;;;;;5006235;28;20139;-68
2023/05/05 09:35:10;;;;;;;12.60;6.93;;;;;;;;;;5007406;28;20040;-70
2023/05/05 09:37:36;;;;;;;10.57;7.03;;;;;;;;;;5008032;28;20045;-66
2023/05/05 09:40:01;;;;;;;12.85;7.05;;;;;;;;;;5005706;28;20049;-67
2023/05/05 09:42:27;;;;;;;14.25;7.57;;;;;;;;;;5009622;28;20083;-68
2023/05/05 09:44:52;;;;;;;13.93;8.23;;;;;;;;;;5037057;28;20049;-69
2023/05/05 09:47:19;;;;;;;14.10;8.23;;;;;;;;;;5006100;28;20044;-68
2023/05/05 09:49:55;;;;;;;13.07;7.50;;;;;;;;;;5006671;28;20156;-66
2023/05/05 09:52:20;;;;;;;13.25;7.32;;;;;;;;;;5006233;28;20266;-66
2023/05/05 09:54:52;;;;;;;18.02;8.25;;;;;;;;;;5012345;28;20034;-66
2023/05/05 09:57:27;;;;;;;13.60;7.30;;;;;;;;;;5001581;28;20037;-66
2023/05/05 09:59:56;;;;;;;14.55;7.43;;;;;;;;;;5027840;28;20514;-67
2023/05/05 10:02:28;;;;;;;12.88;6.70;;;;;;;;;;5003266;28;20549;-68
2023/05/05 10:04:55;;;;;;;;;;;;;;;;;;5005104;28;20039;-67
2023/05/05 10:07:23;;;;;;;11.70;7.00;;;;;;;;;;5005234;28;19917;-68
2023/05/05 10:09:49;;;;;;;9.20;6.43;;;;;;;;;;5005773;28;20038;-65
2023/05/05 10:12:16;;;;;;;11.30;6.30;;;;;;;;;;5016691;28;20038;-65
2023/05/05 10:14:44;;;;;;;11.68;6.70;;;;;;;;;;4990449;28;20038;-67
2023/05/05 10:17:10;;;;;;;13.73;7.65;;;;;;;;;;4983813;28;20068;-65
2023/05/05 10:19:38;;;;;;;12.23;7.78;;;;;;;;;;4989462;28;20982;-66
2023/05/05 10:22:07;;;;;;;12.45;7.63;;;;;;;;;;4984424;28;20038;-67
2023/05/05 10:24:41;;;;;;;12.45;7.88;;;;;;;;;;4986564;28;20053;-65
2023/05/05 10:27:10;;;;;;;15.43;7.88;;;;;;;;;;4988879;28;20034;-66
2023/05/05 10:29:42;;;;;;;12.68;7.10;;;;;;;;;;4985449;28;20045;-66
2023/05/05 10:32:15;;;;;;;10.80;5.50;;;;;;;;;;4984247;28;20132;-66
2023/05/05 10:34:48;;;;;;;8.68;4.30;;;;;;;;;;5030336;28;20096;-66
2023/05/05 10:37:15;;;;;;;9.18;4.60;;;;;;;;;;5003429;28;20040;-65
2023/05/05 10:39:44;;;;;;;7.05;3.67;;;;;;;;;;5000215;28;20739;-66
2023/05/05 10:42:10;;;;;;;8.13;4.65;;;;;;;;;;5005011;28;20059;-66
2023/05/05 10:44:36;;;;;;;6.90;4.35;;;;;;;;;;5002969;28;20056;-67
2023/05/05 10:47:02;;;;;;;7.15;3.85;;;;;;;;;;5018490;28;20303;-66
2023/05/05 10:49:47;;;;;;;9.30;4.50;;;;;;;;;;5002024;28;20042;-65
2023/05/05 10:52:27;;;;;;;10.18;4.70;;;;;;;;;;4989861;28;20064;-65
2023/05/05 10:54:54;;;;;;;;;;;;;;;;;;5014981;28;20060;-67
2023/05/05 10:57:22;;;;;;;8.07;4.80;;;;;;;;;;4983322;28;19913;-66
2023/05/05 10:59:48;;;;;;;9.20;5.93;;;;;;;;;;5007767;28;20300;-67
2023/05/05 11:02:22;;;;;;;11.48;6.68;;;;;;;;;;5001110;28;20106;-66
2023/05/05 11:05:02;;;;;;;14.10;7.00;;;;;;;;;;5003072;28;20735;-67
2023/05/05 11:07:28;;;;;;;12.15;6.72;;;;;;;;;;5004115;28;20038;-66
2023/05/05 11:09:57;;;;;;;10.13;6.45;;;;;;;;;;5034636;28;20044;-65
2023/05/05 11:12:27;;;;;;;12.85;6.78;;;;;;;;;;5003674;28;20121;-66
2023/05/05 11:15:11;;;;;;;16.05;7.47;;;;;;;;;;5006989;28;20041;-67
2023/05/05 11:17:45;;;;;;;13.35;7.43;;;;;;;;;;5037325;28;20179;-66
2023/05/05 11:20:11;;;;;;;16.02;7.43;;;;;;;;;;5005366;28;20037;-65
2023/05/05 11:22:55;;;;;;;15.45;7.13;;;;;;;;;;5009016;28;20072;-65
2023/05/05 11:25:42;;;;;;;13.45;7.22;;;;;;;;;;5004481;28;20033;-65
2023/05/05 11:28:08;;;;;;;13.20;6.20;;;;;;;;;;5016912;28;20045;-66
2023/05/05 11:30:33;;;;;;;10.93;5.85;;;;;;;;;;5006699;28;20045;-66
2023/05/05 11:33:18;;;;;;;10.20;5.60;;;;;;;;;;5006901;28;20056;-66
2023/05/05 11:35:56;;;;;;;9.70;5.18;;;;;;;;;;5039113;28;20037;-66
2023/05/05 11:38:41;;;;;;;10.88;5.22;;;;;;;;;;5006252;28;20095;-67
2023/05/05 11:41:22;;;;;;;11.15;6.18;;;;;;;;;;5005970;28;20506;-67
2023/05/05 11:43:47;;;;;;;15.02;6.80;;;;;;;;;;5037440;28;20598;-67
2023/05/05 11:46:13;;;;;;;12.13;5.88;;;;;;;;;;5005806;28;20029;-67
2023/05/05 11:48:45;;;;;;;11.93;6.03;;;;;;;;;;5003407;28;20045;-65
2023/05/05 11:51:13;;;;;;;11.77;5.78;;;;;;;;;;5004341;28;20083;-66
2023/05/05 11:53:43;;;;;;;11.45;5.45;;;;;;;;;;5005561;28;20076;-65
2023/05/05 11:56:09;;;;;;;11.75;5.60;;;;;;;;;;5006561;28;20061;-65
2023/05/05 11:58:34;;;;;;;13.00;5.78;;;;;;;;;;5004061;28;20556;-65
2023/05/05 12:01:03;;;;;;;12.65;6.60;;;;;;;;;;5008089;28;20076;-66
2023/05/05 12:03:32;;;;;;;14.13;7.50;;;;;;;;;;5008074;28;20034;-66
2023/05/05 12:05:57;;;;;;;13.20;6.93;;;;;;;;;;5007140;28;20202;-66
2023/05/05 12:08:23;;;;;;;13.18;6.30;;;;;;;;;;5009092;28;20673;-66
2023/05/05 12:10:48;;;;;;;11.27;5.70;;;;;;;;;;5008659;28;20941;-67
2023/05/05 12:13:17;;;;;;;10.90;5.80;;;;;;;;;;5026565;28;20045;-66
2023/05/05 12:15:43;;;;;;;11.02;5.57;;;;;;;;;;5007351;28;20033;-67
2023/05/05 12:18:16;;;;;;;12.07;5.80;;;;;;;;;;5008653;28;20033;-67
2023/05/05 12:20:41;;;;;;;11.02;5.75;;;;;;;;;;5008243;28;20037;-67
2023/05/05 12:23:10;;;;;;;10.63;5.82;;;;;;;;;;5007635;28;20089;-66
2023/05/05 12:25:39;;;;;;;11.13;6.13;;;;;;;;;;5005803;28;20037;-65
2023/05/05 12:28:06;;;;;;;11.93;6.28;;;;;;;;;;5037969;28;20053;-67
2023/05/05 12:30:31;;;;;;;12.15;6.28;;;;;;;;;;5007772;28;20040;-68
2023/05/05 12:33:03;;;;;;;12.80;6.45;;;;;;;;;;5007840;28;20037;-67
2023/05/05 12:35:29;;;;;;;9.88;5.40;;;;;;;;;;5005340;28;20034;-66
2023/05/05 12:37:55;;;;;;;9.30;4.00;;;;;;;;;;5003641;28;20056;-65
2023/05/05 12:40:39;;;;;;;8.85;4.20;;;;;;;;;;5005038;28;20045;-66
2023/05/05 12:43:04;;;;;;;8.90;4.38;;;;;;;;;;5005813;28;20044;-66
2023/05/05 12:45:30;;;;;;;10.40;4.40;;;;;;;;;;5007368;28;20042;-67
2023/05/05 12:47:55;;;;;;;10.85;4.50;;;;;;;;;;5008357;28;20033;-66
2023/05/05 12:50:30;;;;;;;8.82;3.10;;;;;;;;;;5030303;28;20037;-66
2023/05/05 12:52:55;;;;;;;11.05;3.97;;;;;;;;;;5008367;28;20030;-65
2023/05/05 12:55:33;;;;;;;9.38;3.90;;;;;;;;;;5007257;28;20083;-66
2023/05/05 12:58:03;;;;;;;13.75;4.13;;;;;;;;;;5007886;28;20071;-66
2023/05/05 13:00:29;;;;;;;11.82;4.07;;;;;;;;;;5007166;28;20029;-65
2023/05/05 13:02:56;;;;;;;13.85;5.50;;;;;;;;;;5037927;28;20116;-66
2023/05/05 13:05:29;;;;;;;12.75;4.80;;;;;;;;;;5007628;28;20094;-66
2023/05/05 13:07:57;;;;;;;10.85;4.50;;;;;;;;;;5010036;28;20512;-66
2023/05/05 13:10:23;;;;;;;10.50;4.53;;;;;;;;;;5037434;28;20091;-67
2023/05/05 13:12:49;;;;;;;11.27;4.60;;;;;;;;;;5010385;28;20033;-66
2023/05/05 13:15:14;;;;;;;9.07;3.35;;;;;;;;;;5005452;28;20151;-69
2023/05/05 13:17:39;;;;;;;12.25;3.90;;;;;;;;;;5006815;28;20352;-67
2023/05/05 13:20:06;;;;;;;9.55;3.95;;;;;;;;;;5003000;28;20203;-66
2023/05/05 13:22:31;;;;;;;10.18;3.28;;;;;;;;;;5006993;28;20076;-66
2023/05/05 13:24:56;;;;;;;11.80;3.72;;;;;;;;;;5002949;28;20045;-65
2023/05/05 13:27:22;;;;;;;8.98;3.08;;;;;;;;;;5007025;28;20041;-66
2023/05/05 13:29:50;;;;;;;11.05;3.15;;;;;;;;;;5004654;28;20044;-65
2023/05/05 13:32:18;;;;;;;9.07;2.80;;;;;;;;;;5022276;28;20037;-67
2023/05/05 13:34:46;;;;;;;8.07;3.00;;;;;;;;;;5038203;28;20033;-67
2023/05/05 13:37:11;;;;;;;8.60;2.80;;;;;;;;;;5007000;28;20643;-67
2023/05/05 13:39:39;;;;;;;8.70;3.13;;;;;;;;;;5038875;28;20091;-67
2023/05/05 13:42:04;;;;;;;10.18;2.90;;;;;;;;;;5007121;28;20033;-66
2023/05/05 13:44:30;;;;;;;7.43;2.33;;;;;;;;;;5014096;28;20034;-66
2023/05/05 13:46:55;;;;;;;10.57;3.05;;;;;;;;;;5037522;28;20058;-67
2023/05/05 13:49:20;;;;;;;9.18;3.20;;;;;;;;;;5035856;28;20037;-67
2023/05/05 13:51:46;;;;;;;7.82;2.50;;;;;;;;;;5005153;28;20052;-66
2023/05/05 13:54:11;;;;;;;9.10;3.65;;;;;;;;;;5005936;28;20138;-68
2023/05/05 13:56:39;;;;;;;10.77;3.35;;;;;;;;;;5036352;28;20132;-69
2023/05/05 13:59:06;;;;;;;8.32;2.78;;;;;;;;;;5005056;28;20037;-67
2023/05/05 14:01:32;;;;;;;7.15;2.67;;;;;;;;;;5004904;28;20030;-67
2023/05/05 14:03:57;;;;;;;8.27;2.50;;;;;;;;;;5039497;28;20049;-69
2023/05/05 14:06:22;;;;;;;10.88;4.30;;;;;;;;;;5009057;28;20552;-67
2023/05/05 14:08:48;;;;;;;15.60;10.13;;;;;;;;;;5007763;28;20037;-67
2023/05/05 14:11:15;;;;;;;19.40;11.27;;;;;;;;;;5037721;28;20067;-66
2023/05/05 14:13:42;;;;;;;12.90;6.32;;;;;;;;;;5038082;28;20529;-66
2023/05/05 14:16:07;;;;;;;16.88;11.20;;;;;;;;;;5005223;28;20145;-68
2023/05/05 14:18:32;;;;;;;13.38;8.10;;;;;;;;;;5007130;28;20041;-66
2023/05/05 14:21:00;;;;;;;22.85;7.90;;;;;;;;;;5037172;28;20037;-66
2023/05/05 14:23:25;;;;;;;24.83;9.00;;;;;;;;;;5008881;28;20057;-67
2023/05/05 14:25:50;;;;;;;15.13;6.70;;;;;;;;;;5007273;28;20040;-66
2023/05/05 14:28:16;;;;;;;14.77;8.65;;;;;;;;;;5007151;28;20030;-67
2023/05/05 14:30:41;;;;;;;18.45;8.18;;;;;;;;;;5038039;28;20569;-65